createdAt,value
2019-01-26T00:02:22.944Z,51.83
2019-01-26T00:07:24.653Z,42.17
2019-01-26T00:12:26.803Z,43.73
2019-01-26T00:17:28.382Z,49.90
2019-01-26T00:22:30.007Z,46.90
2019-01-26T00:27:31.577Z,49.53
2019-01-26T00:32:33.151Z,46.47
2019-01-26T00:37:34.719Z,41.00
2019-01-26T00:42:36.334Z,48.63
2019-01-26T00:47:37.993Z,54.13
2019-01-26T00:52:39.563Z,53.37
2019-01-26T00:57:41.144Z,53.60
2019-01-26T01:02:42.753Z,52.13
2019-01-26T01:07:44.414Z,56.80
2019-01-26T01:12:46.033Z,48.73
2019-01-26T01:17:47.539Z,50.53
2019-01-26T01:22:49.135Z,54.17
2019-01-26T01:27:50.665Z,55.17
2019-01-26T01:32:52.247Z,51.23
2019-01-26T01:37:53.880Z,57.30
2019-01-26T01:42:55.408Z,47.27
2019-01-26T01:47:56.974Z,46.40
2019-01-26T01:52:58.524Z,53.83
2019-01-26T01:58:00.216Z,47.87
2019-01-26T02:03:02.099Z,55.87
2019-01-26T02:08:03.634Z,53.97
2019-01-26T02:13:05.177Z,58.47
2019-01-26T02:18:06.792Z,59.90
2019-01-26T02:23:08.805Z,58.67
2019-01-26T02:28:10.384Z,54.93
2019-01-26T02:33:11.949Z,61.17
2019-01-26T02:38:13.839Z,47.13
2019-01-26T02:43:15.424Z,55.87
2019-01-26T02:48:16.993Z,45.43
2019-01-26T02:53:18.493Z,54.37
2019-01-26T02:58:20.356Z,47.53
2019-01-26T03:03:21.868Z,41.50
2019-01-26T03:08:23.447Z,43.27
2019-01-26T03:13:24.992Z,46.63
2019-01-26T03:18:26.610Z,44.30
2019-01-26T03:23:28.195Z,56.40
2019-01-26T03:28:30.320Z,38.33
2019-01-26T03:33:31.870Z,41.10
2019-01-26T03:38:33.414Z,39.63
2019-01-26T03:43:34.908Z,40.87
2019-01-26T03:48:36.462Z,45.87
2019-01-26T03:53:38.366Z,35.13
2019-01-26T03:58:39.925Z,40.63
2019-01-26T04:03:41.490Z,43.80
2019-01-26T04:08:43.022Z,38.60
2019-01-26T04:13:44.946Z,33.97
2019-01-26T04:18:46.509Z,29.57
2019-01-26T04:23:48.487Z,34.53
2019-01-26T04:28:50.112Z,32.97
2019-01-26T04:33:51.685Z,27.47
2019-01-26T04:38:53.237Z,41.43
2019-01-26T04:43:54.804Z,27.07
2019-01-26T04:48:56.316Z,37.07
2019-01-26T04:53:57.847Z,28.80
2019-01-26T04:58:59.417Z,39.90
2019-01-26T05:04:00.990Z,36.37
2019-01-26T05:09:04.916Z,45.23
2019-01-26T05:14:06.490Z,35.77
2019-01-26T05:19:08.454Z,41.93
2019-01-26T05:24:10.005Z,47.20
2019-01-26T05:29:11.574Z,39.90
2019-01-26T05:34:13.120Z,39.13
2019-01-26T05:39:14.726Z,49.40
2019-01-26T05:44:16.234Z,56.47
2019-01-26T05:49:18.081Z,50.93
2019-01-26T05:54:19.686Z,38.87
2019-01-26T05:59:21.595Z,59.10
2019-01-26T06:04:23.573Z,43.50
2019-01-26T06:09:25.436Z,46.37
2019-01-26T06:14:27.391Z,46.70
2019-01-26T06:19:28.977Z,45.67
2019-01-26T06:24:30.565Z,40.60
2019-01-26T06:29:32.224Z,38.17
2019-01-26T06:34:34.262Z,45.63
2019-01-26T06:39:35.871Z,44.63
2019-01-26T06:44:37.959Z,46.83
2019-01-26T06:49:39.776Z,44.83
2019-01-26T06:54:41.720Z,41.33
2019-01-26T06:59:43.372Z,51.47
2019-01-26T07:04:44.890Z,58.73
2019-01-26T07:09:46.500Z,50.50
2019-01-26T07:14:48.045Z,47.77
2019-01-26T07:19:50.062Z,38.70
2019-01-26T07:24:51.764Z,50.57
2019-01-26T07:29:53.375Z,43.50
2019-01-26T07:34:54.996Z,45.60
2019-01-26T07:39:56.667Z,45.70
2019-01-26T07:44:58.626Z,49.73
2019-01-26T07:50:00.296Z,40.00
2019-01-26T07:55:02.216Z,35.37
2019-01-26T08:00:06.422Z,38.43
2019-01-26T08:05:09.131Z,45.23
2019-01-26T08:10:12.829Z,48.50
2019-01-26T08:15:17.070Z,54.43
2019-01-26T08:20:19.136Z,44.00
2019-01-26T08:25:20.943Z,50.20
2019-01-26T08:30:22.616Z,54.83
2019-01-26T08:35:24.200Z,47.70
2019-01-26T08:40:25.977Z,44.70
2019-01-26T08:45:27.608Z,41.97
2019-01-26T08:50:29.314Z,48.20
2019-01-26T08:55:31.203Z,42.17
2019-01-26T09:00:32.834Z,45.07
2019-01-26T09:05:34.780Z,48.17
2019-01-26T09:10:36.538Z,41.57
2019-01-26T09:15:39.614Z,36.00
2019-01-26T09:20:41.216Z,40.57
2019-01-26T09:25:43.014Z,37.30
2019-01-26T09:30:44.602Z,34.10
2019-01-26T09:35:46.658Z,30.43
2019-01-26T09:40:49.474Z,29.63
2019-01-26T09:45:51.420Z,23.53
2019-01-26T09:50:53.266Z,23.67
2019-01-26T09:55:54.967Z,18.90
2019-01-26T10:00:56.617Z,16.63
2019-01-26T10:05:58.292Z,21.17
2019-01-26T10:11:00.033Z,28.87
2019-01-26T10:16:03.720Z,35.10
2019-01-26T10:21:05.539Z,35.67
2019-01-26T10:26:07.615Z,37.20
2019-01-26T10:31:11.080Z,48.07
2019-01-26T10:36:12.619Z,43.60
2019-01-26T10:41:14.176Z,56.00
2019-01-26T10:46:15.775Z,46.20
2019-01-26T10:51:17.662Z,52.60
2019-01-26T10:56:20.757Z,46.13
2019-01-26T11:01:28.250Z,43.53
2019-01-26T11:06:29.992Z,42.60
2019-01-26T11:11:31.673Z,34.43
2019-01-26T11:16:33.662Z,33.50
2019-01-26T11:21:35.323Z,30.60
2019-01-26T11:26:36.891Z,30.17
2019-01-26T11:31:38.426Z,26.00
2019-01-26T11:36:40.108Z,22.07
2019-01-26T11:41:41.901Z,20.60
2019-01-26T11:46:43.461Z,16.60
2019-01-26T11:51:45.094Z,21.47
2019-01-26T11:56:46.895Z,22.90
2019-01-26T12:01:48.461Z,13.67
2019-01-26T12:06:50.083Z,12.77
2019-01-26T12:11:51.643Z,17.33
2019-01-26T12:16:53.237Z,13.00
2019-01-26T12:21:55.221Z,13.87
2019-01-26T12:26:56.771Z,12.60
2019-01-26T12:31:58.509Z,11.40
2019-01-26T12:37:07.684Z,12.37
2019-01-26T12:42:09.561Z,8.70
2019-01-26T12:47:16.945Z,8.70
2019-01-26T12:52:14.556Z,7.80
2019-01-26T12:57:16.117Z,6.87
2019-01-26T13:02:18.111Z,9.50
2019-01-26T13:07:19.994Z,9.20
2019-01-26T13:12:21.680Z,7.17
2019-01-26T13:17:23.249Z,5.77
2019-01-26T13:22:24.861Z,5.83
2019-01-26T13:27:26.433Z,4.87
2019-01-26T13:32:27.974Z,6.40
2019-01-26T13:37:30.077Z,10.00
2019-01-26T13:42:31.673Z,10.57
2019-01-26T13:47:37.770Z,7.43
2019-01-26T13:52:37.829Z,9.17
2019-01-26T13:57:39.396Z,6.23
2019-01-26T14:02:41.160Z,8.53
2019-01-26T14:07:42.690Z,9.07
2019-01-26T14:12:44.600Z,4.07
2019-01-26T14:17:46.165Z,7.43
2019-01-26T14:22:47.713Z,4.97
2019-01-26T14:27:49.681Z,7.87
2019-01-26T14:32:52.531Z,6.13
2019-01-26T14:37:54.494Z,6.73
2019-01-26T14:42:56.058Z,7.03
2019-01-26T14:47:57.685Z,4.90
2019-01-26T14:53:00.127Z,5.00
2019-01-26T14:58:01.801Z,5.60
2019-01-26T15:03:03.743Z,5.17
2019-01-26T15:08:05.355Z,8.60
2019-01-26T15:13:07.002Z,9.13
2019-01-26T15:18:08.566Z,8.13
2019-01-26T15:23:10.361Z,6.60
2019-01-26T15:28:11.935Z,5.80
2019-01-26T15:33:13.578Z,7.33
2019-01-26T15:38:15.664Z,5.00
2019-01-26T15:43:17.210Z,4.30
2019-01-26T15:48:18.780Z,5.03
2019-01-26T15:53:20.742Z,6.07
2019-01-26T15:58:25.244Z,4.80
2019-01-26T16:03:27.145Z,5.13
2019-01-26T16:08:28.745Z,11.30
2019-01-26T16:13:30.897Z,3.90
2019-01-26T16:18:32.427Z,6.33
2019-01-26T16:23:34.011Z,3.90
2019-01-26T16:28:35.696Z,7.17
2019-01-26T16:33:41.731Z,5.37
2019-01-26T16:38:43.497Z,4.43
2019-01-26T16:43:45.155Z,4.83
2019-01-26T16:48:46.719Z,5.23
2019-01-26T16:53:48.272Z,7.63
2019-01-26T16:58:50.027Z,5.13
2019-01-26T17:03:52.017Z,6.90
2019-01-26T17:08:53.923Z,8.03
2019-01-26T17:13:55.893Z,8.20
2019-01-26T17:18:57.481Z,9.63
2019-01-26T17:23:59.069Z,10.03
2019-01-26T17:29:01.129Z,9.93
2019-01-26T17:34:02.865Z,11.53
2019-01-26T17:39:07.056Z,13.83
2019-01-26T17:44:08.765Z,9.77
2019-01-26T17:49:10.419Z,15.40
2019-01-26T17:54:12.042Z,15.50
2019-01-26T17:59:13.741Z,16.73
2019-01-26T18:04:15.351Z,18.83
2019-01-26T18:09:17.167Z,16.83
2019-01-26T18:14:18.876Z,16.53
2019-01-26T18:19:20.466Z,15.77
2019-01-26T18:24:22.084Z,16.60
2019-01-26T18:29:23.718Z,19.90
2019-01-26T18:34:25.783Z,21.73
2019-01-26T18:39:27.543Z,26.13
2019-01-26T18:44:29.163Z,25.13
2019-01-26T18:49:31.241Z,27.70
2019-01-26T18:54:32.948Z,27.47
2019-01-26T18:59:34.592Z,23.83
2019-01-26T19:04:40.314Z,23.67
2019-01-26T19:09:42.563Z,22.60
2019-01-26T19:14:44.327Z,24.77
2019-01-26T19:19:46.117Z,23.50
2019-01-26T19:24:47.889Z,24.37
2019-01-26T19:29:49.788Z,20.27
2019-01-26T19:34:51.834Z,21.30
2019-01-26T19:39:53.549Z,18.47
2019-01-26T19:44:55.163Z,19.93
2019-01-26T19:49:56.757Z,19.40
2019-01-26T19:54:58.387Z,20.27
2019-01-26T20:00:00.032Z,18.30
2019-01-26T20:05:01.926Z,20.27
2019-01-26T20:10:04.775Z,19.03
2019-01-26T20:15:10.071Z,17.63
2019-01-26T20:20:14.784Z,18.03
2019-01-26T20:25:16.892Z,18.67
2019-01-26T20:30:21.699Z,18.07
2019-01-26T20:35:23.508Z,17.43
2019-01-26T20:40:25.154Z,19.07
2019-01-26T20:45:29.998Z,18.33
2019-01-26T20:50:31.644Z,16.17
2019-01-26T20:55:33.179Z,16.30
2019-01-26T21:00:35.025Z,19.03
2019-01-26T21:05:36.657Z,14.67
2019-01-26T21:10:38.450Z,14.20
2019-01-26T21:15:41.101Z,11.97
2019-01-26T21:20:42.696Z,10.77
2019-01-26T21:25:44.670Z,12.87
2019-01-26T21:30:46.414Z,9.83
2019-01-26T21:35:47.986Z,8.87
2019-01-26T21:40:49.651Z,10.27
2019-01-26T21:45:51.216Z,9.13
2019-01-26T21:50:53.314Z,10.23
2019-01-26T21:55:55.682Z,9.83
2019-01-26T22:00:57.436Z,8.50
2019-01-26T22:06:00.966Z,8.97
2019-01-26T22:11:03.765Z,7.57
2019-01-26T22:16:05.430Z,7.90
2019-01-26T22:21:07.028Z,7.33
2019-01-26T22:26:08.967Z,10.20
2019-01-26T22:31:10.527Z,10.97
2019-01-26T22:36:12.557Z,9.07
2019-01-26T22:41:14.327Z,9.50
2019-01-26T22:46:16.266Z,8.60
2019-01-26T22:51:17.972Z,8.53
2019-01-26T22:56:20.030Z,8.97
2019-01-26T23:01:28.262Z,9.53
2019-01-26T23:06:48.375Z,8.13
2019-01-26T23:12:32.296Z,11.57
2019-01-26T23:17:49.720Z,10.43
2019-01-26T23:23:44.999Z,11.27
2019-01-26T23:29:23.486Z,12.27
2019-01-26T23:34:25.036Z,9.27
2019-01-26T23:39:26.737Z,8.70
2019-01-26T23:44:28.801Z,8.67
2019-01-26T23:49:30.364Z,12.07
2019-01-26T23:54:32.159Z,11.30
2019-01-26T23:59:38.655Z,15.27
